sensor_id;sensor_type;location;lat;lon;timestamp;P1;durP1;ratioP1;P2;durP2;ratioP2
79365;SDS011;68833;53.160;17.920;2024-02-14T00:00:19;71.50;;;37.30;;
79365;SDS011;68833;53.160;17.920;2024-02-14T00:03:06;80.20;;;40.70;;
79365;SDS011;68833;53.160;17.920;2024-02-14T00:05:33;96.70;;;49.20;;
79365;SDS011;68833;53.160;17.920;2024-02-14T00:07:59;88.20;;;44.50;;
79365;SDS011;68833;53.160;17.920;2024-02-14T00:10:25;67.70;;;35.00;;
79365;SDS011;68833;53.160;17.920;2024-02-14T00:12:52;50.40;;;27.60;;
79365;SDS011;68833;53.160;17.920;2024-02-14T00:15:18;42.30;;;21.80;;
79365;SDS011;68833;53.160;17.920;2024-02-14T00:17:45;40.20;;;20.70;;
79365;SDS011;68833;53.160;17.920;2024-02-14T00:20:11;35.80;;;19.70;;
79365;SDS011;68833;53.160;17.920;2024-02-14T00:22:38;40.30;;;21.30;;
79365;SDS011;68833;53.160;17.920;2024-02-14T00:25:06;42.60;;;21.00;;
79365;SDS011;68833;53.160;17.920;2024-02-14T00:27:33;39.30;;;21.20;;
79365;SDS011;68833;53.160;17.920;2024-02-14T00:29:59;31.50;;;19.60;;
79365;SDS011;68833;53.160;17.920;2024-02-14T00:32:25;34.70;;;19.40;;
79365;SDS011;68833;53.160;17.920;2024-02-14T00:34:52;34.00;;;18.30;;
79365;SDS011;68833;53.160;17.920;2024-02-14T00:37:19;31.90;;;17.00;;
79365;SDS011;68833;53.160;17.920;2024-02-14T00:39:45;32.80;;;18.60;;
79365;SDS011;68833;53.160;17.920;2024-02-14T00:42:14;32.10;;;17.20;;
79365;SDS011;68833;53.160;17.920;2024-02-14T00:44:40;29.20;;;16.30;;
79365;SDS011;68833;53.160;17.920;2024-02-14T00:47:07;30.50;;;17.30;;
79365;SDS011;68833;53.160;17.920;2024-02-14T00:49:36;24.80;;;15.70;;
79365;SDS011;68833;53.160;17.920;2024-02-14T00:52:03;29.50;;;17.90;;
79365;SDS011;68833;53.160;17.920;2024-02-14T00:54:29;30.50;;;17.90;;
79365;SDS011;68833;53.160;17.920;2024-02-14T00:56:56;33.30;;;18.70;;
79365;SDS011;68833;53.160;17.920;2024-02-14T00:59:22;34.10;;;19.80;;
79365;SDS011;68833;53.160;17.920;2024-02-14T01:01:48;35.20;;;18.00;;
79365;SDS011;68833;53.160;17.920;2024-02-14T01:04:15;26.70;;;16.80;;
79365;SDS011;68833;53.160;17.920;2024-02-14T01:06:41;26.50;;;16.60;;
79365;SDS011;68833;53.160;17.920;2024-02-14T01:09:07;25.60;;;16.90;;
79365;SDS011;68833;53.160;17.920;2024-02-14T01:11:34;28.80;;;15.80;;
79365;SDS011;68833;53.160;17.920;2024-02-14T01:14:01;27.40;;;17.00;;
79365;SDS011;68833;53.160;17.920;2024-02-14T01:16:27;26.70;;;16.20;;
79365;SDS011;68833;53.160;17.920;2024-02-14T01:18:54;28.10;;;16.90;;
79365;SDS011;68833;53.160;17.920;2024-02-14T01:21:20;30.50;;;16.90;;
79365;SDS011;68833;53.160;17.920;2024-02-14T01:23:46;26.90;;;16.60;;
79365;SDS011;68833;53.160;17.920;2024-02-14T01:26:13;28.60;;;17.00;;
79365;SDS011;68833;53.160;17.920;2024-02-14T01:28:39;30.00;;;16.90;;
79365;SDS011;68833;53.160;17.920;2024-02-14T01:31:05;30.50;;;16.70;;
79365;SDS011;68833;53.160;17.920;2024-02-14T01:33:32;33.70;;;18.20;;
79365;SDS011;68833;53.160;17.920;2024-02-14T01:35:58;28.00;;;16.60;;
79365;SDS011;68833;53.160;17.920;2024-02-14T01:38:25;29.00;;;17.20;;
79365;SDS011;68833;53.160;17.920;2024-02-14T01:40:51;27.60;;;17.30;;
79365;SDS011;68833;53.160;17.920;2024-02-14T01:43:17;30.20;;;17.00;;
79365;SDS011;68833;53.160;17.920;2024-02-14T01:45:46;28.40;;;17.20;;
79365;SDS011;68833;53.160;17.920;2024-02-14T01:48:13;31.10;;;19.10;;
79365;SDS011;68833;53.160;17.920;2024-02-14T01:50:40;30.50;;;17.00;;
79365;SDS011;68833;53.160;17.920;2024-02-14T01:53:07;30.90;;;16.90;;
79365;SDS011;68833;53.160;17.920;2024-02-14T01:55:34;25.00;;;15.60;;
79365;SDS011;68833;53.160;17.920;2024-02-14T01:58:01;28.30;;;16.10;;
79365;SDS011;68833;53.160;17.920;2024-02-14T02:00:30;26.00;;;15.70;;
79365;SDS011;68833;53.160;17.920;2024-02-14T02:15:53;52.50;;;26.40;;
79365;SDS011;68833;53.160;17.920;2024-02-14T02:18:19;27.20;;;15.90;;
79365;SDS011;68833;53.160;17.920;2024-02-14T02:20:45;28.60;;;16.10;;
79365;SDS011;68833;53.160;17.920;2024-02-14T02:23:12;29.40;;;17.30;;
79365;SDS011;68833;53.160;17.920;2024-02-14T02:25:41;29.30;;;17.10;;
79365;SDS011;68833;53.160;17.920;2024-02-14T02:28:08;28.30;;;15.70;;
79365;SDS011;68833;53.160;17.920;2024-02-14T02:30:35;27.60;;;15.40;;
79365;SDS011;68833;53.160;17.920;2024-02-14T02:33:02;24.70;;;14.60;;
79365;SDS011;68833;53.160;17.920;2024-02-14T02:35:29;24.80;;;13.70;;
79365;SDS011;68833;53.160;17.920;2024-02-14T02:37:56;26.40;;;15.40;;
79365;SDS011;68833;53.160;17.920;2024-02-14T02:40:23;24.20;;;15.40;;
79365;SDS011;68833;53.160;17.920;2024-02-14T02:42:50;27.70;;;15.40;;
79365;SDS011;68833;53.160;17.920;2024-02-14T02:45:17;29.20;;;15.80;;
79365;SDS011;68833;53.160;17.920;2024-02-14T02:47:44;25.10;;;13.80;;
79365;SDS011;68833;53.160;17.920;2024-02-14T02:50:13;23.60;;;14.10;;
79365;SDS011;68833;53.160;17.920;2024-02-14T02:52:39;22.40;;;13.20;;
79365;SDS011;68833;53.160;17.920;2024-02-14T02:55:07;23.90;;;14.90;;
79365;SDS011;68833;53.160;17.920;2024-02-14T02:57:33;21.20;;;13.40;;
79365;SDS011;68833;53.160;17.920;2024-02-14T03:00:03;23.20;;;14.80;;
79365;SDS011;68833;53.160;17.920;2024-02-14T03:02:35;27.90;;;16.20;;
79365;SDS011;68833;53.160;17.920;2024-02-14T03:05:07;23.30;;;15.00;;
79365;SDS011;68833;53.160;17.920;2024-02-14T03:07:36;24.30;;;15.20;;
79365;SDS011;68833;53.160;17.920;2024-02-14T03:10:03;20.30;;;13.30;;
79365;SDS011;68833;53.160;17.920;2024-02-14T03:12:30;24.30;;;15.40;;
79365;SDS011;68833;53.160;17.920;2024-02-14T03:14:57;22.80;;;14.20;;
79365;SDS011;68833;53.160;17.920;2024-02-14T03:17:27;24.50;;;15.30;;
79365;SDS011;68833;53.160;17.920;2024-02-14T03:19:54;22.40;;;15.10;;
79365;SDS011;68833;53.160;17.920;2024-02-14T03:22:22;24.80;;;14.20;;
79365;SDS011;68833;53.160;17.920;2024-02-14T03:24:48;22.30;;;14.20;;
79365;SDS011;68833;53.160;17.920;2024-02-14T03:27:15;22.30;;;14.00;;
79365;SDS011;68833;53.160;17.920;2024-02-14T03:29:43;19.20;;;13.20;;
79365;SDS011;68833;53.160;17.920;2024-02-14T03:32:10;20.30;;;13.00;;
79365;SDS011;68833;53.160;17.920;2024-02-14T03:34:36;23.50;;;14.60;;
79365;SDS011;68833;53.160;17.920;2024-02-14T03:37:03;22.30;;;13.40;;
79365;SDS011;68833;53.160;17.920;2024-02-14T03:39:30;19.80;;;12.30;;
79365;SDS011;68833;53.160;17.920;2024-02-14T03:41:56;21.30;;;13.50;;
79365;SDS011;68833;53.160;17.920;2024-02-14T03:44:23;20.90;;;13.90;;
79365;SDS011;68833;53.160;17.920;2024-02-14T03:46:49;21.40;;;13.70;;
79365;SDS011;68833;53.160;17.920;2024-02-14T03:49:16;23.00;;;14.00;;
79365;SDS011;68833;53.160;17.920;2024-02-14T03:51:43;25.50;;;14.50;;
79365;SDS011;68833;53.160;17.920;2024-02-14T03:54:09;24.10;;;14.20;;
79365;SDS011;68833;53.160;17.920;2024-02-14T03:56:37;22.80;;;13.20;;
79365;SDS011;68833;53.160;17.920;2024-02-14T03:59:03;25.60;;;14.10;;
79365;SDS011;68833;53.160;17.920;2024-02-14T04:01:31;25.90;;;15.60;;
79365;SDS011;68833;53.160;17.920;2024-02-14T04:03:58;22.30;;;13.40;;
79365;SDS011;68833;53.160;17.920;2024-02-14T04:06:25;22.90;;;13.70;;
79365;SDS011;68833;53.160;17.920;2024-02-14T04:08:53;25.50;;;15.20;;
79365;SDS011;68833;53.160;17.920;2024-02-14T04:11:20;24.20;;;14.50;;
79365;SDS011;68833;53.160;17.920;2024-02-14T04:13:46;20.20;;;13.40;;
79365;SDS011;68833;53.160;17.920;2024-02-14T04:16:13;25.30;;;13.60;;
79365;SDS011;68833;53.160;17.920;2024-02-14T04:18:39;22.60;;;13.60;;
79365;SDS011;68833;53.160;17.920;2024-02-14T04:21:07;23.60;;;14.70;;
79365;SDS011;68833;53.160;17.920;2024-02-14T04:23:36;24.70;;;14.60;;
79365;SDS011;68833;53.160;17.920;2024-02-14T04:26:06;26.10;;;15.80;;
79365;SDS011;68833;53.160;17.920;2024-02-14T04:28:34;22.90;;;14.30;;
79365;SDS011;68833;53.160;17.920;2024-02-14T04:31:01;24.30;;;14.30;;
79365;SDS011;68833;53.160;17.920;2024-02-14T04:33:28;25.70;;;14.20;;
79365;SDS011;68833;53.160;17.920;2024-02-14T04:35:56;24.50;;;14.40;;
79365;SDS011;68833;53.160;17.920;2024-02-14T04:38:23;23.80;;;13.60;;
79365;SDS011;68833;53.160;17.920;2024-02-14T04:40:49;24.00;;;13.70;;
79365;SDS011;68833;53.160;17.920;2024-02-14T04:43:16;27.40;;;15.50;;
79365;SDS011;68833;53.160;17.920;2024-02-14T04:45:43;24.80;;;14.60;;
79365;SDS011;68833;53.160;17.920;2024-02-14T04:48:10;27.20;;;16.00;;
79365;SDS011;68833;53.160;17.920;2024-02-14T04:50:36;25.20;;;14.20;;
79365;SDS011;68833;53.160;17.920;2024-02-14T04:53:03;27.40;;;15.70;;
79365;SDS011;68833;53.160;17.920;2024-02-14T04:55:31;30.30;;;17.70;;
79365;SDS011;68833;53.160;17.920;2024-02-14T04:57:59;26.80;;;16.80;;
79365;SDS011;68833;53.160;17.920;2024-02-14T05:00:26;33.90;;;19.90;;
79365;SDS011;68833;53.160;17.920;2024-02-14T05:02:53;33.80;;;19.50;;
79365;SDS011;68833;53.160;17.920;2024-02-14T05:05:21;28.30;;;16.90;;
79365;SDS011;68833;53.160;17.920;2024-02-14T05:07:48;31.20;;;17.70;;
79365;SDS011;68833;53.160;17.920;2024-02-14T05:10:15;33.90;;;18.10;;
79365;SDS011;68833;53.160;17.920;2024-02-14T05:12:43;31.80;;;19.60;;
79365;SDS011;68833;53.160;17.920;2024-02-14T05:15:11;32.20;;;19.60;;
79365;SDS011;68833;53.160;17.920;2024-02-14T05:17:41;36.30;;;20.40;;
79365;SDS011;68833;53.160;17.920;2024-02-14T05:20:11;31.10;;;18.80;;
79365;SDS011;68833;53.160;17.920;2024-02-14T05:22:39;34.10;;;19.10;;
79365;SDS011;68833;53.160;17.920;2024-02-14T05:25:07;40.90;;;21.70;;
79365;SDS011;68833;53.160;17.920;2024-02-14T05:27:35;41.00;;;21.80;;
79365;SDS011;68833;53.160;17.920;2024-02-14T05:30:03;38.40;;;21.10;;
79365;SDS011;68833;53.160;17.920;2024-02-14T05:32:32;34.60;;;19.20;;
79365;SDS011;68833;53.160;17.920;2024-02-14T05:35:00;39.60;;;21.70;;
79365;SDS011;68833;53.160;17.920;2024-02-14T05:37:28;33.30;;;19.60;;
79365;SDS011;68833;53.160;17.920;2024-02-14T05:39:57;33.70;;;20.10;;
79365;SDS011;68833;53.160;17.920;2024-02-14T05:42:24;37.10;;;20.00;;
79365;SDS011;68833;53.160;17.920;2024-02-14T05:44:52;32.20;;;18.30;;
79365;SDS011;68833;53.160;17.920;2024-02-14T05:47:20;30.00;;;18.40;;
79365;SDS011;68833;53.160;17.920;2024-02-14T05:49:47;32.90;;;18.00;;
79365;SDS011;68833;53.160;17.920;2024-02-14T05:52:17;34.10;;;19.50;;
79365;SDS011;68833;53.160;17.920;2024-02-14T05:54:47;32.70;;;19.20;;
79365;SDS011;68833;53.160;17.920;2024-02-14T05:57:17;33.70;;;19.60;;
79365;SDS011;68833;53.160;17.920;2024-02-14T05:59:46;36.20;;;19.30;;
79365;SDS011;68833;53.160;17.920;2024-02-14T06:02:15;35.60;;;20.30;;
79365;SDS011;68833;53.160;17.920;2024-02-14T06:04:44;35.10;;;20.00;;
79365;SDS011;68833;53.160;17.920;2024-02-14T06:07:13;32.60;;;19.80;;
79365;SDS011;68833;53.160;17.920;2024-02-14T06:09:42;34.40;;;20.50;;
79365;SDS011;68833;53.160;17.920;2024-02-14T06:12:12;35.60;;;20.50;;
79365;SDS011;68833;53.160;17.920;2024-02-14T06:14:42;34.20;;;20.60;;
79365;SDS011;68833;53.160;17.920;2024-02-14T06:17:11;30.30;;;19.10;;
79365;SDS011;68833;53.160;17.920;2024-02-14T06:19:40;34.00;;;20.50;;
79365;SDS011;68833;53.160;17.920;2024-02-14T06:22:09;32.90;;;19.90;;
79365;SDS011;68833;53.160;17.920;2024-02-14T06:27:07;31.40;;;19.50;;
79365;SDS011;68833;53.160;17.920;2024-02-14T06:29:36;35.90;;;22.00;;
79365;SDS011;68833;53.160;17.920;2024-02-14T06:32:05;34.50;;;22.90;;
79365;SDS011;68833;53.160;17.920;2024-02-14T06:34:34;35.90;;;22.60;;
79365;SDS011;68833;53.160;17.920;2024-02-14T06:37:03;36.40;;;22.10;;
79365;SDS011;68833;53.160;17.920;2024-02-14T06:39:33;35.90;;;21.80;;
79365;SDS011;68833;53.160;17.920;2024-02-14T06:42:02;40.70;;;23.30;;
79365;SDS011;68833;53.160;17.920;2024-02-14T06:44:31;39.00;;;23.40;;
79365;SDS011;68833;53.160;17.920;2024-02-14T06:47:00;39.90;;;23.60;;
79365;SDS011;68833;53.160;17.920;2024-02-14T06:57:36;44.80;;;25.40;;
79365;SDS011;68833;53.160;17.920;2024-02-14T07:00:03;55.00;;;29.90;;
79365;SDS011;68833;53.160;17.920;2024-02-14T07:02:32;42.20;;;25.30;;
79365;SDS011;68833;53.160;17.920;2024-02-14T07:04:58;40.10;;;23.80;;
79365;SDS011;68833;53.160;17.920;2024-02-14T07:07:24;43.80;;;24.60;;
79365;SDS011;68833;53.160;17.920;2024-02-14T07:09:51;44.40;;;25.50;;
79365;SDS011;68833;53.160;17.920;2024-02-14T07:12:17;49.10;;;26.50;;
79365;SDS011;68833;53.160;17.920;2024-02-14T07:14:46;41.00;;;23.40;;
79365;SDS011;68833;53.160;17.920;2024-02-14T07:17:12;45.20;;;25.00;;
79365;SDS011;68833;53.160;17.920;2024-02-14T07:19:38;44.30;;;24.00;;
79365;SDS011;68833;53.160;17.920;2024-02-14T07:22:05;38.10;;;21.70;;
79365;SDS011;68833;53.160;17.920;2024-02-14T07:24:31;39.20;;;22.00;;
79365;SDS011;68833;53.160;17.920;2024-02-14T07:26:57;36.80;;;22.60;;
79365;SDS011;68833;53.160;17.920;2024-02-14T07:29:26;38.50;;;20.90;;
79365;SDS011;68833;53.160;17.920;2024-02-14T07:31:53;44.70;;;23.10;;
79365;SDS011;68833;53.160;17.920;2024-02-14T07:34:20;38.70;;;21.20;;
79365;SDS011;68833;53.160;17.920;2024-02-14T07:36:46;37.40;;;21.40;;
79365;SDS011;68833;53.160;17.920;2024-02-14T07:39:13;40.70;;;22.10;;
79365;SDS011;68833;53.160;17.920;2024-02-14T07:41:39;43.70;;;23.80;;
79365;SDS011;68833;53.160;17.920;2024-02-14T07:44:05;41.10;;;22.20;;
79365;SDS011;68833;53.160;17.920;2024-02-14T07:46:32;43.30;;;25.90;;
79365;SDS011;68833;53.160;17.920;2024-02-14T07:49:00;48.30;;;27.80;;
79365;SDS011;68833;53.160;17.920;2024-02-14T07:51:27;44.30;;;23.90;;
79365;SDS011;68833;53.160;17.920;2024-02-14T07:53:54;47.50;;;25.10;;
79365;SDS011;68833;53.160;17.920;2024-02-14T07:56:21;48.80;;;25.40;;
79365;SDS011;68833;53.160;17.920;2024-02-14T07:58:48;41.50;;;23.20;;
79365;SDS011;68833;53.160;17.920;2024-02-14T08:01:15;48.40;;;24.00;;
79365;SDS011;68833;53.160;17.920;2024-02-14T08:03:42;50.30;;;26.90;;
79365;SDS011;68833;53.160;17.920;2024-02-14T08:06:08;41.50;;;24.10;;
79365;SDS011;68833;53.160;17.920;2024-02-14T08:08:34;38.90;;;21.30;;
79365;SDS011;68833;53.160;17.920;2024-02-14T08:11:01;35.20;;;21.00;;
79365;SDS011;68833;53.160;17.920;2024-02-14T08:13:27;31.30;;;19.80;;
79365;SDS011;68833;53.160;17.920;2024-02-14T08:15:54;31.50;;;17.30;;
79365;SDS011;68833;53.160;17.920;2024-02-14T08:18:21;48.20;;;27.10;;
79365;SDS011;68833;53.160;17.920;2024-02-14T08:20:47;43.30;;;26.10;;
79365;SDS011;68833;53.160;17.920;2024-02-14T08:23:13;41.30;;;25.40;;
79365;SDS011;68833;53.160;17.920;2024-02-14T08:25:40;44.40;;;24.50;;
79365;SDS011;68833;53.160;17.920;2024-02-14T08:28:09;44.60;;;23.80;;
79365;SDS011;68833;53.160;17.920;2024-02-14T08:30:35;44.30;;;23.00;;
79365;SDS011;68833;53.160;17.920;2024-02-14T08:33:03;47.10;;;22.90;;
79365;SDS011;68833;53.160;17.920;2024-02-14T08:35:30;49.30;;;25.30;;
79365;SDS011;68833;53.160;17.920;2024-02-14T08:37:56;45.80;;;24.10;;
79365;SDS011;68833;53.160;17.920;2024-02-14T08:40:22;39.40;;;21.70;;
79365;SDS011;68833;53.160;17.920;2024-02-14T08:42:49;37.20;;;20.80;;
79365;SDS011;68833;53.160;17.920;2024-02-14T08:45:15;40.30;;;21.80;;
79365;SDS011;68833;53.160;17.920;2024-02-14T08:47:43;39.20;;;21.30;;
79365;SDS011;68833;53.160;17.920;2024-02-14T08:50:10;46.40;;;25.00;;
79365;SDS011;68833;53.160;17.920;2024-02-14T08:52:36;41.30;;;23.60;;
79365;SDS011;68833;53.160;17.920;2024-02-14T08:55:06;44.00;;;22.40;;
79365;SDS011;68833;53.160;17.920;2024-02-14T08:57:40;38.20;;;19.80;;
79365;SDS011;68833;53.160;17.920;2024-02-14T09:00:10;40.10;;;19.70;;
79365;SDS011;68833;53.160;17.920;2024-02-14T09:02:37;30.00;;;17.50;;
79365;SDS011;68833;53.160;17.920;2024-02-14T09:05:03;37.80;;;20.40;;
79365;SDS011;68833;53.160;17.920;2024-02-14T09:07:31;35.60;;;19.30;;
79365;SDS011;68833;53.160;17.920;2024-02-14T09:09:59;28.80;;;18.00;;
79365;SDS011;68833;53.160;17.920;2024-02-14T09:12:26;32.10;;;18.10;;
79365;SDS011;68833;53.160;17.920;2024-02-14T09:14:52;30.00;;;16.70;;
79365;SDS011;68833;53.160;17.920;2024-02-14T09:17:18;27.60;;;16.70;;
79365;SDS011;68833;53.160;17.920;2024-02-14T09:19:45;27.10;;;16.80;;
79365;SDS011;68833;53.160;17.920;2024-02-14T09:22:11;34.50;;;20.00;;
79365;SDS011;68833;53.160;17.920;2024-02-14T09:24:44;32.80;;;19.70;;
79365;SDS011;68833;53.160;17.920;2024-02-14T09:27:10;31.90;;;18.10;;
79365;SDS011;68833;53.160;17.920;2024-02-14T09:29:36;30.30;;;18.10;;
79365;SDS011;68833;53.160;17.920;2024-02-14T09:32:04;25.60;;;15.80;;
79365;SDS011;68833;53.160;17.920;2024-02-14T09:34:30;29.80;;;15.50;;
79365;SDS011;68833;53.160;17.920;2024-02-14T09:36:57;20.90;;;12.20;;
79365;SDS011;68833;53.160;17.920;2024-02-14T09:39:24;28.10;;;16.30;;
79365;SDS011;68833;53.160;17.920;2024-02-14T09:41:58;26.40;;;14.90;;
79365;SDS011;68833;53.160;17.920;2024-02-14T09:44:28;21.50;;;12.50;;
79365;SDS011;68833;53.160;17.920;2024-02-14T09:46:54;23.50;;;13.60;;
79365;SDS011;68833;53.160;17.920;2024-02-14T09:49:22;24.20;;;14.10;;
79365;SDS011;68833;53.160;17.920;2024-02-14T09:51:49;20.50;;;11.50;;
79365;SDS011;68833;53.160;17.920;2024-02-14T09:54:17;23.20;;;12.20;;
79365;SDS011;68833;53.160;17.920;2024-02-14T09:56:48;23.00;;;13.30;;
79365;SDS011;68833;53.160;17.920;2024-02-14T09:59:21;25.10;;;13.00;;
79365;SDS011;68833;53.160;17.920;2024-02-14T10:01:48;18.30;;;12.00;;
79365;SDS011;68833;53.160;17.920;2024-02-14T10:04:16;18.30;;;11.10;;
79365;SDS011;68833;53.160;17.920;2024-02-14T10:06:45;22.20;;;11.00;;
79365;SDS011;68833;53.160;17.920;2024-02-14T10:09:11;14.20;;;9.00;;
79365;SDS011;68833;53.160;17.920;2024-02-14T10:11:38;13.70;;;8.10;;
79365;SDS011;68833;53.160;17.920;2024-02-14T10:14:04;21.40;;;11.50;;
79365;SDS011;68833;53.160;17.920;2024-02-14T10:16:35;18.20;;;10.20;;
79365;SDS011;68833;53.160;17.920;2024-02-14T10:19:01;16.70;;;9.60;;
79365;SDS011;68833;53.160;17.920;2024-02-14T10:21:29;19.80;;;9.50;;
79365;SDS011;68833;53.160;17.920;2024-02-14T10:23:59;12.80;;;8.20;;
79365;SDS011;68833;53.160;17.920;2024-02-14T10:26:29;16.80;;;8.60;;
79365;SDS011;68833;53.160;17.920;2024-02-14T10:28:56;11.10;;;7.80;;
79365;SDS011;68833;53.160;17.920;2024-02-14T10:31:26;12.90;;;7.50;;
79365;SDS011;68833;53.160;17.920;2024-02-14T10:33:53;14.10;;;7.50;;
79365;SDS011;68833;53.160;17.920;2024-02-14T10:36:21;13.90;;;8.70;;
79365;SDS011;68833;53.160;17.920;2024-02-14T10:38:48;17.20;;;9.40;;
79365;SDS011;68833;53.160;17.920;2024-02-14T10:41:16;16.70;;;9.20;;
79365;SDS011;68833;53.160;17.920;2024-02-14T10:43:43;14.20;;;7.50;;
79365;SDS011;68833;53.160;17.920;2024-02-14T10:46:15;12.40;;;7.30;;
79365;SDS011;68833;53.160;17.920;2024-02-14T10:48:50;13.30;;;7.50;;
79365;SDS011;68833;53.160;17.920;2024-02-14T10:51:20;10.20;;;6.30;;
79365;SDS011;68833;53.160;17.920;2024-02-14T10:53:48;17.90;;;8.80;;
79365;SDS011;68833;53.160;17.920;2024-02-14T10:56:18;15.60;;;7.80;;
79365;SDS011;68833;53.160;17.920;2024-02-14T10:58:45;14.30;;;7.90;;
79365;SDS011;68833;53.160;17.920;2024-02-14T11:03:54;9.40;;;6.20;;
79365;SDS011;68833;53.160;17.920;2024-02-14T11:06:23;11.50;;;7.60;;
79365;SDS011;68833;53.160;17.920;2024-02-14T11:08:57;17.60;;;9.50;;
79365;SDS011;68833;53.160;17.920;2024-02-14T11:11:32;15.00;;;7.70;;
79365;SDS011;68833;53.160;17.920;2024-02-14T11:13:58;13.40;;;8.40;;
79365;SDS011;68833;53.160;17.920;2024-02-14T11:16:25;15.10;;;8.40;;
79365;SDS011;68833;53.160;17.920;2024-02-14T11:19:05;13.80;;;7.70;;
79365;SDS011;68833;53.160;17.920;2024-02-14T11:21:35;11.00;;;7.40;;
79365;SDS011;68833;53.160;17.920;2024-02-14T11:24:05;10.50;;;6.00;;
79365;SDS011;68833;53.160;17.920;2024-02-14T11:26:39;11.70;;;6.60;;
79365;SDS011;68833;53.160;17.920;2024-02-14T11:29:18;11.30;;;6.60;;
79365;SDS011;68833;53.160;17.920;2024-02-14T11:31:44;15.10;;;8.90;;
79365;SDS011;68833;53.160;17.920;2024-02-14T11:34:11;16.60;;;9.70;;
79365;SDS011;68833;53.160;17.920;2024-02-14T11:36:39;12.00;;;5.80;;
79365;SDS011;68833;53.160;17.920;2024-02-14T11:39:08;10.70;;;6.20;;
79365;SDS011;68833;53.160;17.920;2024-02-14T11:41:35;9.50;;;5.70;;
79365;SDS011;68833;53.160;17.920;2024-02-14T11:44:01;9.90;;;5.70;;
79365;SDS011;68833;53.160;17.920;2024-02-14T11:46:33;13.20;;;6.30;;
79365;SDS011;68833;53.160;17.920;2024-02-14T11:49:00;12.30;;;6.40;;
79365;SDS011;68833;53.160;17.920;2024-02-14T11:51:28;11.70;;;6.70;;
79365;SDS011;68833;53.160;17.920;2024-02-14T11:53:57;13.30;;;7.80;;
79365;SDS011;68833;53.160;17.920;2024-02-14T11:56:31;12.70;;;8.00;;
79365;SDS011;68833;53.160;17.920;2024-02-14T11:59:05;15.80;;;8.90;;
79365;SDS011;68833;53.160;17.920;2024-02-14T12:01:35;11.10;;;6.10;;
79365;SDS011;68833;53.160;17.920;2024-02-14T12:04:06;11.00;;;6.10;;
79365;SDS011;68833;53.160;17.920;2024-02-14T12:06:40;9.20;;;6.40;;
79365;SDS011;68833;53.160;17.920;2024-02-14T12:09:10;8.50;;;5.00;;
79365;SDS011;68833;53.160;17.920;2024-02-14T12:11:39;10.40;;;6.30;;
79365;SDS011;68833;53.160;17.920;2024-02-14T12:14:09;10.80;;;6.30;;
79365;SDS011;68833;53.160;17.920;2024-02-14T12:16:36;10.60;;;6.30;;
79365;SDS011;68833;53.160;17.920;2024-02-14T12:19:05;13.80;;;6.80;;
79365;SDS011;68833;53.160;17.920;2024-02-14T12:21:38;10.90;;;7.20;;
79365;SDS011;68833;53.160;17.920;2024-02-14T12:24:09;10.20;;;5.40;;
79365;SDS011;68833;53.160;17.920;2024-02-14T12:26:37;9.00;;;5.40;;
79365;SDS011;68833;53.160;17.920;2024-02-14T12:29:04;11.10;;;6.60;;
79365;SDS011;68833;53.160;17.920;2024-02-14T12:31:33;9.80;;;7.00;;
79365;SDS011;68833;53.160;17.920;2024-02-14T12:34:00;9.90;;;6.20;;
79365;SDS011;68833;53.160;17.920;2024-02-14T12:36:28;15.00;;;7.30;;
79365;SDS011;68833;53.160;17.920;2024-02-14T12:41:24;11.00;;;5.80;;
79365;SDS011;68833;53.160;17.920;2024-02-14T12:43:52;8.30;;;5.20;;
79365;SDS011;68833;53.160;17.920;2024-02-14T12:46:19;7.90;;;5.20;;
79365;SDS011;68833;53.160;17.920;2024-02-14T12:48:45;8.20;;;4.90;;
79365;SDS011;68833;53.160;17.920;2024-02-14T12:51:12;13.30;;;6.50;;
79365;SDS011;68833;53.160;17.920;2024-02-14T12:53:38;12.30;;;7.00;;
79365;SDS011;68833;53.160;17.920;2024-02-14T12:56:05;10.90;;;7.10;;
79365;SDS011;68833;53.160;17.920;2024-02-14T12:58:32;16.60;;;9.30;;
79365;SDS011;68833;53.160;17.920;2024-02-14T13:00:58;12.20;;;7.50;;
79365;SDS011;68833;53.160;17.920;2024-02-14T13:03:25;11.80;;;6.90;;
79365;SDS011;68833;53.160;17.920;2024-02-14T13:05:52;13.10;;;7.30;;
79365;SDS011;68833;53.160;17.920;2024-02-14T13:08:20;11.10;;;6.60;;
79365;SDS011;68833;53.160;17.920;2024-02-14T13:10:46;13.30;;;6.90;;
79365;SDS011;68833;53.160;17.920;2024-02-14T13:13:13;10.70;;;6.20;;
79365;SDS011;68833;53.160;17.920;2024-02-14T13:15:40;11.20;;;6.40;;
79365;SDS011;68833;53.160;17.920;2024-02-14T13:18:08;11.00;;;6.40;;
79365;SDS011;68833;53.160;17.920;2024-02-14T13:20:35;10.90;;;5.80;;
79365;SDS011;68833;53.160;17.920;2024-02-14T13:23:03;16.80;;;8.00;;
79365;SDS011;68833;53.160;17.920;2024-02-14T13:25:29;13.80;;;7.70;;
79365;SDS011;68833;53.160;17.920;2024-02-14T13:27:56;11.50;;;6.90;;
79365;SDS011;68833;53.160;17.920;2024-02-14T13:30:24;12.00;;;7.70;;
79365;SDS011;68833;53.160;17.920;2024-02-14T13:32:50;18.40;;;9.00;;
79365;SDS011;68833;53.160;17.920;2024-02-14T13:35:17;14.10;;;8.10;;
79365;SDS011;68833;53.160;17.920;2024-02-14T13:37:43;11.30;;;5.90;;
79365;SDS011;68833;53.160;17.920;2024-02-14T13:40:11;13.30;;;7.60;;
79365;SDS011;68833;53.160;17.920;2024-02-14T13:42:37;8.90;;;5.40;;
79365;SDS011;68833;53.160;17.920;2024-02-14T13:45:04;9.20;;;6.00;;
79365;SDS011;68833;53.160;17.920;2024-02-14T13:47:36;15.30;;;8.40;;
79365;SDS011;68833;53.160;17.920;2024-02-14T13:50:09;12.40;;;8.00;;
79365;SDS011;68833;53.160;17.920;2024-02-14T13:52:36;18.60;;;10.40;;
79365;SDS011;68833;53.160;17.920;2024-02-14T13:55:05;15.00;;;8.60;;
79365;SDS011;68833;53.160;17.920;2024-02-14T13:57:37;14.50;;;8.20;;
79365;SDS011;68833;53.160;17.920;2024-02-14T14:00:04;16.10;;;9.20;;
79365;SDS011;68833;53.160;17.920;2024-02-14T14:02:38;15.00;;;8.10;;
79365;SDS011;68833;53.160;17.920;2024-02-14T14:05:08;14.00;;;7.80;;
79365;SDS011;68833;53.160;17.920;2024-02-14T14:07:38;11.30;;;6.40;;
79365;SDS011;68833;53.160;17.920;2024-02-14T14:10:06;18.80;;;9.70;;
79365;SDS011;68833;53.160;17.920;2024-02-14T14:12:32;19.10;;;10.70;;
79365;SDS011;68833;53.160;17.920;2024-02-14T14:15:00;18.70;;;10.60;;
79365;SDS011;68833;53.160;17.920;2024-02-14T14:17:27;16.90;;;9.90;;
79365;SDS011;68833;53.160;17.920;2024-02-14T14:19:53;16.60;;;9.00;;
79365;SDS011;68833;53.160;17.920;2024-02-14T14:22:20;16.50;;;9.90;;
79365;SDS011;68833;53.160;17.920;2024-02-14T14:24:47;15.80;;;9.40;;
79365;SDS011;68833;53.160;17.920;2024-02-14T14:27:13;17.10;;;9.80;;
79365;SDS011;68833;53.160;17.920;2024-02-14T14:29:40;13.40;;;8.30;;
79365;SDS011;68833;53.160;17.920;2024-02-14T14:32:07;16.50;;;9.70;;
79365;SDS011;68833;53.160;17.920;2024-02-14T14:34:34;14.50;;;8.40;;
79365;SDS011;68833;53.160;17.920;2024-02-14T14:37:00;16.20;;;9.70;;
79365;SDS011;68833;53.160;17.920;2024-02-14T14:39:27;16.80;;;9.80;;
79365;SDS011;68833;53.160;17.920;2024-02-14T14:41:53;30.60;;;14.60;;
79365;SDS011;68833;53.160;17.920;2024-02-14T14:44:24;25.00;;;15.10;;